Time;durP1;ratioP1;P1;durP2;ratioP2;P2;SDS_P1;SDS_P2;PMS_P1;PMS_P2;Temp;Humidity;BMP_temperature;BMP_pressure;BME280_temperature;BME280_humidity;BME280_pressure;Samples;Min_cycle;Max_cycle;Signal;HPM_P1;HPM_P2
2021/09/13 00:01:23;;;;;;;32.85;11.38;;;;;;;13.89;100.00;100827.89;1682287;85;21661;-89
2021/09/13 00:03:58;;;;;;;37.25;11.88;;;;;;;13.80;100.00;100826.84;1682119;85;21046;-89
2021/09/13 00:06:24;;;;;;;28.70;11.65;;;;;;;13.74;100.00;100835.53;1682124;85;21008;-89
2021/09/13 00:08:50;;;;;;;41.83;11.83;;;;;;;13.70;100.00;100834.98;1682186;84;20873;-89
2021/09/13 00:11:16;;;;;;;32.60;11.43;;;;;;;13.72;100.00;100839.59;1682158;84;20952;-89
2021/09/13 00:13:42;;;;;;;32.15;11.45;;;;;;;13.69;100.00;100838.79;1682185;85;21848;-90
2021/09/13 00:16:08;;;;;;;37.23;11.03;;;;;;;13.67;100.00;100841.76;1682150;84;21520;-89
2021/09/13 00:18:38;;;;;;;38.40;11.85;;;;;;;13.64;100.00;100835.53;1682209;85;20924;-88
2021/09/13 00:21:06;;;;;;;36.48;11.78;;;;;;;13.64;100.00;100839.59;1682009;85;21076;-88
2021/09/13 00:23:31;;;;;;;32.48;11.53;;;;;;;13.63;100.00;100834.73;1679769;84;21052;-88
2021/09/13 00:25:57;;;;;;;30.52;10.55;;;;;;;13.59;100.00;100836.92;1677664;84;21096;-88
2021/09/13 00:28:23;;;;;;;37.80;11.43;;;;;;;13.56;100.00;100840.15;1677962;85;20956;-88
2021/09/13 00:30:49;;;;;;;28.20;10.28;;;;;;;13.55;100.00;100837.18;1681010;84;21622;-88
2021/09/13 00:33:15;;;;;;;29.80;10.48;;;;;;;13.50;100.00;100836.66;1685190;85;20888;-88
2021/09/13 00:35:40;;;;;;;30.30;10.28;;;;;;;13.37;100.00;100834.50;1681179;85;21400;-89
2021/09/13 00:38:06;;;;;;;30.92;10.78;;;;;;;13.27;100.00;100828.56;1679539;84;21086;-89
2021/09/13 00:40:32;;;;;;;25.20;9.75;;;;;;;13.24;100.00;100835.03;1679873;84;21700;-90
2021/09/13 00:43:01;;;;;;;36.13;10.60;;;;;;;13.17;100.00;100830.69;1672022;85;21035;-89
2021/09/13 00:45:26;;;;;;;25.02;10.50;;;;;;;13.09;100.00;100829.89;1681134;84;21008;-89
2021/09/13 00:47:51;;;;;;;27.15;10.45;;;;;;;13.01;100.00;100827.72;1685123;84;21082;-90
2021/09/13 00:50:17;;;;;;;24.37;10.00;;;;;;;12.96;100.00;100831.77;1684996;84;20995;-89
2021/09/13 00:52:47;;;;;;;28.65;10.35;;;;;;;12.94;100.00;100836.63;1685111;84;20948;-88
2021/09/13 00:55:13;;;;;;;29.72;9.95;;;;;;;12.94;100.00;100831.22;1678339;85;21043;-90
2021/09/13 00:57:39;;;;;;;26.45;10.13;;;;;;;12.90;100.00;100828.25;1668742;85;20945;-90
2021/09/13 01:00:12;;;;;;;29.30;11.45;;;;;;;12.83;100.00;100827.71;1643605;85;21661;-89
2021/09/13 01:02:38;;;;;;;;;;;;;;;12.80;100.00;100834.20;1687309;84;21302;-87
2021/09/13 01:05:05;;;;;;;22.27;9.13;;;;;;;12.76;100.00;100830.39;1681753;84;20133;-89
2021/09/13 01:07:31;;;;;;;25.55;9.05;;;;;;;12.71;100.00;100832.57;1680125;84;21091;-89
2021/09/13 01:09:59;;;;;;;30.80;10.43;;;;;;;12.69;100.00;100829.31;1680877;85;20993;-88
2021/09/13 01:12:26;;;;;;;22.13;9.50;;;;;;;12.63;100.00;100826.33;1685196;85;21000;-90
2021/09/13 01:14:52;;;;;;;32.65;10.60;;;;;;;12.57;100.00;100831.45;1667409;85;21049;-89
2021/09/13 01:17:18;;;;;;;30.57;10.18;;;;;;;12.55;100.00;100835.77;1682095;84;20949;-89
2021/09/13 01:19:44;;;;;;;32.65;9.93;;;;;;;12.52;100.00;100844.41;1679704;84;21118;-89
2021/09/13 01:22:12;;;;;;;27.55;9.65;;;;;;;12.49;100.00;100846.30;1681024;85;21015;-88
2021/09/13 01:24:39;;;;;;;26.73;9.28;;;;;;;12.43;100.00;100844.11;1683464;85;21060;-90
2021/09/13 01:27:09;;;;;;;26.62;9.10;;;;;;;12.36;100.00;100842.21;1681961;84;21078;-89
2021/09/13 01:29:36;;;;;;;23.45;9.55;;;;;;;12.35;100.00;100845.16;1680054;84;21794;-88
2021/09/13 01:32:03;;;;;;;29.67;9.48;;;;;;;12.35;100.00;100836.52;1678585;85;21507;-89
2021/09/13 01:34:29;;;;;;;25.12;10.03;;;;;;;12.37;100.00;100838.42;1682693;84;21032;-88
2021/09/13 01:36:55;;;;;;;33.70;9.65;;;;;;;12.42;100.00;100841.14;1683087;84;20893;-87
2021/09/13 01:39:22;;;;;;;26.23;10.05;;;;;;;12.48;100.00;100844.14;1681410;85;21021;-89
2021/09/13 01:41:48;;;;;;;28.80;9.95;;;;;;;12.47;100.00;100843.87;1680375;84;21040;-88
2021/09/13 01:44:15;;;;;;;34.00;10.23;;;;;;;12.45;100.00;100832.50;1680789;84;21064;-89
2021/09/13 01:46:42;;;;;;;23.10;9.00;;;;;;;12.44;100.00;100837.65;1683103;85;21171;-88
2021/09/13 01:49:11;;;;;;;31.05;9.28;;;;;;;12.49;100.00;100835.48;1683089;85;21012;-88
2021/09/13 01:51:38;;;;;;;22.17;8.93;;;;;;;12.50;100.00;100829.02;1683266;84;21088;-87
2021/09/13 01:54:14;;;;;;;27.52;9.33;;;;;;;12.49;100.00;100831.42;1677647;84;21000;-88
2021/09/13 01:56:40;;;;;;;21.85;8.65;;;;;;;12.47;100.00;100831.70;1679661;84;21016;-87
2021/09/13 01:59:06;;;;;;;25.48;8.15;;;;;;;12.45;100.00;100820.89;1681821;84;21080;-88
2021/09/13 02:01:32;;;;;;;22.20;8.73;;;;;;;12.46;100.00;100819.25;1680707;85;21725;-87
2021/09/13 02:03:58;;;;;;;20.90;8.93;;;;;;;12.45;100.00;100812.78;1677610;85;21176;-89
2021/09/13 02:06:25;;;;;;;27.32;9.50;;;;;;;12.44;100.00;100811.97;1677457;84;21001;-92
2021/09/13 02:08:51;;;;;;;29.42;9.43;;;;;;;12.49;100.00;100820.06;1677553;85;21009;-87
2021/09/13 02:11:17;;;;;;;28.27;9.10;;;;;;;12.57;100.00;100812.53;1677570;84;20988;-87
2021/09/13 02:13:45;;;;;;;27.15;9.55;;;;;;;12.60;100.00;100818.75;1677418;84;21019;-87
2021/09/13 02:16:11;;;;;;;24.57;9.03;;;;;;;12.58;100.00;100812.80;1680223;85;21200;-88
2021/09/13 02:18:37;;;;;;;30.60;9.08;;;;;;;12.59;100.00;100815.25;1677634;84;20861;-88
2021/09/13 02:21:03;;;;;;;24.37;8.40;;;;;;;12.61;100.00;100814.95;1677657;84;21044;-88
2021/09/13 02:23:29;;;;;;;23.77;8.80;;;;;;;12.60;100.00;100820.91;1677574;84;21016;-88
2021/09/13 02:25:55;;;;;;;26.37;9.40;;;;;;;12.62;100.00;100820.66;1679394;84;21661;-88
2021/09/13 02:28:22;;;;;;;32.67;9.85;;;;;;;12.60;100.00;100823.61;1680207;84;21007;-88
2021/09/13 02:30:48;;;;;;;32.38;10.63;;;;;;;12.59;100.00;100819.81;1681297;85;21623;-88
2021/09/13 02:33:13;;;;;;;33.02;10.70;;;;;;;12.64;100.00;100823.34;1684429;85;20988;-88
2021/09/13 02:35:39;;;;;;;34.95;10.95;;;;;;;12.67;100.00;100826.05;1681113;84;20885;-89
2021/09/13 02:38:05;;;;;;;29.23;10.82;;;;;;;12.70;100.00;100826.87;1684394;84;20996;-89
2021/09/13 02:40:31;;;;;;;38.10;13.40;;;;;;;12.75;100.00;100830.13;1685357;84;21109;-88
2021/09/13 02:42:57;;;;;;;36.03;12.98;;;;;;;12.75;100.00;100822.83;1685025;84;21043;-88
2021/09/13 02:45:23;;;;;;;39.08;12.23;;;;;;;12.73;100.00;100821.77;1685325;84;21211;-88
2021/09/13 02:47:49;;;;;;;31.33;11.65;;;;;;;12.73;100.00;100828.52;1685221;84;20924;-88
2021/09/13 02:50:15;;;;;;;39.38;10.98;;;;;;;12.75;100.00;100824.18;1685181;84;21003;-88
2021/09/13 02:52:41;;;;;;;34.27;10.75;;;;;;;12.72;100.00;100828.23;1681810;84;21163;-89
2021/09/13 02:55:09;;;;;;;30.57;10.58;;;;;;;12.73;100.00;100824.47;1684084;85;21653;-88
2021/09/13 02:57:35;;;;;;;25.48;9.65;;;;;;;12.77;100.00;100822.58;1685246;84;21579;-88
2021/09/13 03:00:00;;;;;;;32.83;9.50;;;;;;;12.76;100.00;100823.09;1685491;84;20936;-89
2021/09/13 03:02:26;;;;;;;31.95;9.65;;;;;;;12.75;100.00;100828.78;1684836;85;20897;-85
2021/09/13 03:04:52;;;;;;;28.47;9.50;;;;;;;12.77;100.00;100827.98;1680185;84;21909;-89
2021/09/13 03:07:18;;;;;;;27.98;9.80;;;;;;;12.79;100.00;100831.21;1681803;84;21027;-89
2021/09/13 03:09:44;;;;;;;23.92;8.65;;;;;;;12.78;100.00;100832.30;1685245;84;20940;-88
2021/09/13 03:12:10;;;;;;;27.00;8.63;;;;;;;12.69;100.00;100832.02;1683891;84;20912;-89
2021/09/13 03:14:36;;;;;;;33.10;9.68;;;;;;;12.64;100.00;100826.59;1680835;84;21617;-89
2021/09/13 03:17:02;;;;;;;26.52;10.08;;;;;;;12.65;100.00;100824.18;1685231;84;21020;-89
2021/09/13 03:19:29;;;;;;;32.05;10.53;;;;;;;12.66;100.00;100826.59;1682935;85;21048;-89
2021/09/13 03:21:55;;;;;;;24.52;9.23;;;;;;;12.65;100.00;100829.59;1679354;84;20996;-89
2021/09/13 03:24:21;;;;;;;28.57;9.40;;;;;;;12.68;100.00;100835.81;1685524;84;21522;-88
2021/09/13 03:26:47;;;;;;;25.52;9.55;;;;;;;12.74;100.00;100832.03;1695387;84;20917;-89
2021/09/13 03:29:13;;;;;;;32.70;10.15;;;;;;;12.83;100.00;100832.31;1686897;84;21011;-85
2021/09/13 03:31:39;;;;;;;25.82;8.95;;;;;;;12.86;100.00;100835.28;1682612;84;20973;-88
2021/09/13 03:34:08;;;;;;;26.77;8.75;;;;;;;12.88;100.00;100826.89;1682768;85;21032;-88
2021/09/13 03:36:38;;;;;;;28.98;10.30;;;;;;;12.93;100.00;100827.70;1682651;85;21367;-88
2021/09/13 04:05:41;;;;;;;68.10;19.05;;;;;;;13.95;100.00;100822.73;1682465;85;20936;-89
2021/09/13 04:08:11;;;;;;;60.43;17.73;;;;;;;14.11;100.00;100823.47;1681070;85;21575;-91
2021/09/13 04:12:58;;;;;;;48.75;14.03;;;;;;;14.89;100.00;100823.33;1683891;85;20992;-93
2021/09/13 04:15:24;;;;;;;44.27;13.90;;;;;;;15.62;100.00;100830.00;1683372;85;21016;-93
2021/09/13 04:17:50;;;;;;;40.12;13.85;;;;;;;16.36;100.00;100824.27;1683456;85;21484;-93
2021/09/13 04:20:16;;;;;;;41.55;14.50;;;;;;;17.09;100.00;100820.20;1681940;85;21059;-93
2021/09/13 04:22:42;;;;;;;43.28;15.20;;;;;;;17.84;100.00;100822.41;1682706;85;20919;-93
2021/09/13 04:25:09;;;;;;;37.75;13.80;;;;;;;18.39;100.00;100812.25;1683294;85;21690;-94
2021/09/13 04:35:02;;;;;;;38.23;12.05;;;;;;;20.10;100.00;100818.61;1683236;85;21025;-93
2021/09/13 04:37:28;;;;;;;41.53;11.95;;;;;;;21.22;100.00;100820.56;1678659;85;20994;-92
2021/09/13 04:39:54;;;;;;;31.55;11.53;;;;;;;21.79;100.00;100820.80;1659863;85;20881;-94
2021/09/13 04:42:19;;;;;;;29.87;11.45;;;;;;;22.20;99.52;100828.92;1683537;85;20932;-94
2021/09/13 04:44:45;;;;;;;36.10;11.00;;;;;;;22.51;99.36;100825.81;1682923;84;20881;-94
2021/09/13 04:47:12;;;;;;;29.87;11.08;;;;;;;23.15;93.02;100819.14;1680963;85;21099;-94
2021/09/13 04:49:38;;;;;;;37.70;10.78;;;;;;;23.75;91.33;100816.84;1683166;85;20935;-94
2021/09/13 04:52:05;;;;;;;31.45;10.65;;;;;;;24.41;86.94;100824.00;1683247;85;20909;-95
2021/09/13 04:54:31;;;;;;;32.88;10.68;;;;;;;24.90;71.87;100823.30;1684899;85;21036;-93
2021/09/13 04:56:56;;;;;;;30.10;10.05;;;;;;;24.99;71.29;100831.99;1683400;84;21477;-94
2021/09/13 04:59:22;;;;;;;39.42;10.50;;;;;;;25.31;68.39;100825.41;1683578;85;21088;-94
2021/09/13 05:01:48;;;;;;;40.95;12.05;;;;;;;25.93;64.70;100827.17;1683982;85;20905;-94
2021/09/13 05:04:14;;;;;;;37.83;10.08;;;;;;;26.57;63.18;100826.45;1683359;85;20960;-94
2021/09/13 05:06:40;;;;;;;35.85;10.35;;;;;;;27.21;58.77;100824.19;1683296;85;20854;-94
2021/09/13 05:09:06;;;;;;;24.92;10.10;;;;;;;27.80;55.69;100816.51;1683059;85;20985;-95
2021/09/13 05:11:32;;;;;;;34.25;10.80;;;;;;;28.33;51.00;100816.48;1682077;85;21214;-94
2021/09/13 05:13:59;;;;;;;26.20;9.70;;;;;;;28.50;51.22;100816.52;1683338;85;21805;-95
2021/09/13 05:16:25;;;;;;;26.00;9.53;;;;;;;29.06;46.81;100817.59;1677913;84;21060;-94
2021/09/13 05:18:51;;;;;;;22.17;9.53;;;;;;;29.41;47.90;100810.20;1679973;84;20956;-93
2021/09/13 05:21:17;;;;;;;25.17;10.13;;;;;;;29.98;44.78;100814.05;1681480;85;20988;-94
2021/09/13 05:23:43;;;;;;;34.80;11.60;;;;;;;29.92;41.71;100814.21;1681398;84;21058;-94
2021/09/13 05:29:49;;;;;;;27.77;11.55;;;;;;;30.09;40.21;100813.50;1681751;84;21017;-95
2021/09/13 05:32:15;;;;;;;25.52;9.98;;;;;;;30.64;41.21;100819.57;1683477;85;21023;-93
2021/09/13 05:34:42;;;;;;;36.28;9.55;;;;;;;31.38;41.33;100815.41;1683103;85;21063;-95
2021/09/13 05:37:08;;;;;;;26.77;9.75;;;;;;;32.12;38.57;100808.20;1678536;84;21109;-94
2021/09/13 05:39:35;;;;;;;25.30;8.43;;;;;;;32.45;37.36;100808.34;1679036;84;21539;-93
2021/09/13 05:42:01;;;;;;;22.22;8.68;;;;;;;32.85;37.14;100807.52;1654589;85;21001;-94
2021/09/13 05:44:28;;;;;;;26.55;7.65;;;;;;;33.06;35.19;100812.21;1682986;84;21898;-95
2021/09/13 05:46:54;;;;;;;25.32;7.05;;;;;;;33.12;34.10;100811.17;1682621;84;21562;-94
2021/09/13 05:49:20;;;;;;;19.30;5.90;;;;;;;33.18;33.05;100812.33;1682975;84;21279;-94
2021/09/13 05:51:46;;;;;;;18.25;5.95;;;;;;;33.22;32.51;100817.31;1679579;84;20933;-93
2021/09/13 05:54:16;;;;;;;26.00;6.28;;;;;;;33.36;32.26;100813.63;1678205;84;21020;-89
2021/09/13 05:56:44;;;;;;;21.65;5.17;;;;;;;33.80;31.49;100809.27;1681813;85;21016;-88
2021/09/13 05:59:10;;;;;;;16.77;5.28;;;;;;;34.68;30.56;100805.89;1679381;84;21048;-87
2021/09/13 06:01:36;;;;;;;17.95;5.58;;;;;;;35.27;30.15;100809.67;1677419;84;21839;-89
2021/09/13 06:04:02;;;;;;;21.37;5.65;;;;;;;36.07;29.67;100814.13;1671169;85;20861;-93
2021/09/13 06:06:30;;;;;;;20.72;5.75;;;;;;;36.90;27.42;100806.19;1682722;84;20987;-95
2021/09/13 06:08:56;;;;;;;12.20;5.30;;;;;;;37.24;27.84;100810.00;1682002;85;21471;-95
2021/09/13 06:11:26;;;;;;;15.85;5.72;;;;;;;38.02;27.04;100819.11;1682509;85;20909;-94
2021/09/13 06:13:50;;;;;;;11.28;5.30;;;;;;;38.85;26.01;100808.46;1677359;85;21035;-95
2021/09/13 06:16:15;;;;;;;17.52;4.83;;;;;;;39.69;25.39;100808.14;1665999;84;20847;-92
2021/09/13 06:18:41;;;;;;;20.52;5.40;;;;;;;40.38;24.12;100814.34;1665530;85;21064;-93
2021/09/13 06:21:07;;;;;;;18.35;5.72;;;;;;;40.95;24.02;100811.38;1665768;85;20859;-88
2021/09/13 06:23:33;;;;;;;20.90;5.80;;;;;;;41.86;22.73;100805.12;1691990;83;21625;-90
2021/09/13 06:25:58;;;;;;;10.82;5.28;;;;;;;42.33;22.35;100806.69;1681513;83;21175;-91
2021/09/13 06:28:24;;;;;;;14.95;5.50;;;;;;;42.72;21.21;100807.50;1648513;87;20880;-92
2021/09/13 06:30:56;;;;;;;17.57;5.87;;;;;;;43.04;20.79;100811.00;1648388;86;21042;-89
2021/09/13 06:33:22;;;;;;;14.43;5.92;;;;;;;43.45;20.49;100811.41;1676200;84;21039;-88
2021/09/13 06:35:48;;;;;;;13.22;5.85;;;;;;;43.60;19.34;100812.90;1695918;83;21040;-90
2021/09/13 06:38:15;;;;;;;17.20;6.80;;;;;;;43.49;19.10;100819.09;1696806;83;20997;-90
2021/09/13 06:40:41;;;;;;;14.60;5.87;;;;;;;43.82;19.50;100818.22;1705904;83;21003;-91
2021/09/13 06:43:09;;;;;;;12.90;6.10;;;;;;;44.05;18.61;100815.20;1674790;83;21578;-91
2021/09/13 06:45:45;;;;;;;17.95;6.40;;;;;;;44.56;19.25;100822.57;1707405;84;21052;-90
2021/09/13 06:48:15;;;;;;;13.95;6.47;;;;;;;44.97;18.03;100820.52;1707336;83;21516;-89
2021/09/13 06:50:44;;;;;;;16.97;6.92;;;;;;;45.25;17.98;100815.25;1707722;84;21160;-89
2021/09/13 06:53:10;;;;;;;14.43;5.72;;;;;;;45.50;17.18;100819.44;1707952;84;21023;-89
2021/09/13 06:55:38;;;;;;;21.07;6.80;;;;;;;45.10;17.29;100815.28;1707976;84;21040;-87
2021/09/13 06:58:06;;;;;;;14.45;6.97;;;;;;;45.05;17.65;100815.34;1707978;84;21048;-89
2021/09/13 07:00:33;;;;;;;15.50;6.92;;;;;;;44.92;17.32;100818.36;1707643;84;21075;-90
2021/09/13 07:03:19;;;;;;;14.68;6.22;;;;;;;45.10;16.77;100818.91;1707869;84;21527;-92
2021/09/13 07:05:44;;;;;;;20.95;7.22;;;;;;;45.29;15.70;100825.12;1644480;85;21079;-88
2021/09/13 07:08:10;;;;;;;19.90;6.55;;;;;;;44.32;16.60;100819.03;1638400;86;20991;-89
2021/09/13 07:10:36;;;;;;;13.55;6.45;;;;;;;44.87;16.92;100819.86;1641669;87;20963;-92
2021/09/13 07:13:02;;;;;;;15.30;6.55;;;;;;;45.63;16.72;100818.48;1610428;88;20920;-92
2021/09/13 07:15:28;;;;;;;12.82;7.03;;;;;;;45.68;15.93;100821.23;1631979;86;21352;-90
2021/09/13 07:17:54;;;;;;;14.55;6.97;;;;;;;45.49;15.77;100824.36;1631885;87;21071;-92
2021/09/13 07:20:20;;;;;;;9.50;6.75;;;;;;;45.30;15.48;100827.33;1632247;88;21209;-92
2021/09/13 07:22:46;;;;;;;13.10;7.17;;;;;;;44.40;16.36;100823.87;1632006;87;21559;-90
2021/09/13 07:25:12;;;;;;;14.47;7.15;;;;;;;44.24;16.13;100826.38;1632188;88;20928;-92
2021/09/13 07:27:40;;;;;;;11.65;7.28;;;;;;;44.62;16.43;100824.08;1632160;88;21050;-92
2021/09/13 07:30:07;;;;;;;16.82;7.05;;;;;;;44.80;15.95;100824.52;1628632;88;21115;-91
2021/09/13 07:32:42;;;;;;;12.28;7.70;;;;;;;45.03;16.23;100821.38;1632202;88;21102;-89
2021/09/13 07:35:11;;;;;;;15.88;7.92;;;;;;;45.46;16.01;100821.73;1632112;88;21043;-92
2021/09/13 07:37:38;;;;;;;21.80;8.58;;;;;;;45.61;15.70;100810.29;1632224;88;21099;-93
2021/09/13 07:40:07;;;;;;;16.97;8.40;;;;;;;44.83;15.87;100814.38;1632154;88;21065;-92
2021/09/13 07:42:34;;;;;;;21.95;8.40;;;;;;;44.11;16.31;100816.73;1632148;88;21039;-92
2021/09/13 07:45:01;;;;;;;18.23;7.47;;;;;;;43.12;16.48;100815.66;1631975;88;21079;-91
2021/09/13 07:47:29;;;;;;;18.73;8.05;;;;;;;43.07;17.51;100815.70;1631939;88;21048;-91
2021/09/13 07:49:56;;;;;;;20.75;7.15;;;;;;;43.80;17.22;100814.30;1631901;88;21043;-91
2021/09/13 07:52:22;;;;;;;20.00;6.95;;;;;;;44.32;16.71;100811.29;1610527;88;21103;-91
2021/09/13 07:54:48;;;;;;;9.98;5.42;;;;;;;44.81;15.70;100819.00;1631995;87;21102;-91
2021/09/13 07:57:14;;;;;;;19.30;6.67;;;;;;;44.94;15.28;100813.75;1632018;88;20912;-93
2021/09/13 07:59:39;;;;;;;15.85;6.60;;;;;;;45.04;15.56;100810.94;1632057;87;20996;-91
2021/09/13 08:02:05;;;;;;;14.43;6.33;;;;;;;45.52;15.44;100810.58;1658827;85;20947;-93
2021/09/13 08:04:31;;;;;;;11.68;6.58;;;;;;;45.77;14.69;100809.06;1659085;85;21830;-93
2021/09/13 08:06:58;;;;;;;12.33;6.60;;;;;;;44.94;15.50;100805.21;1672682;85;20915;-94
2021/09/13 08:09:24;;;;;;;14.60;6.55;;;;;;;45.25;15.36;100806.07;1626641;87;21019;-93
2021/09/13 08:11:50;;;;;;;12.20;6.25;;;;;;;45.06;15.04;100800.47;1672395;85;20871;-93
2021/09/13 08:14:16;;;;;;;13.45;6.28;;;;;;;44.76;15.18;100802.63;1657181;85;20995;-92
2021/09/13 08:16:42;;;;;;;13.72;6.83;;;;;;;44.83;15.31;100798.73;1673549;85;21894;-93
2021/09/13 08:19:08;;;;;;;10.48;7.17;;;;;;;45.52;14.78;100789.22;1647980;87;21055;-86
2021/09/13 08:21:39;;;;;;;11.80;6.65;;;;;;;46.38;14.76;100781.69;1648228;87;21048;-90
2021/09/13 08:24:03;;;;;;;11.08;6.75;;;;;;;45.02;14.58;100797.83;1645210;87;21096;-89
2021/09/13 08:26:29;;;;;;;10.05;6.17;;;;;;;43.07;15.20;100786.56;1648841;86;21035;-91
2021/09/13 08:28:54;;;;;;;16.15;6.70;;;;;;;42.41;16.07;100793.73;1648988;87;21645;-91
2021/09/13 08:35:10;;;;;;;9.00;6.20;;;;;;;42.49;16.98;100786.33;1648045;87;28338;-91
2021/09/13 08:37:37;;;;;;;8.53;5.78;;;;;;;43.56;15.74;100782.47;1648829;87;21023;-94
2021/09/13 08:40:04;;;;;;;12.37;5.30;;;;;;;42.93;16.01;100787.27;1648775;86;21562;-89
2021/09/13 08:42:41;;;;;;;22.55;6.35;;;;;;;41.81;16.79;100792.23;1648730;87;21246;-93
2021/09/13 08:45:09;;;;;;;13.50;5.42;;;;;;;40.99;17.21;100792.20;1646509;85;21054;-91
2021/09/13 08:47:48;;;;;;;8.78;4.75;;;;;;;39.85;18.06;100790.27;1648355;87;21016;-95
2021/09/13 08:52:36;;;;;;;9.80;4.58;;;;;;;39.83;19.04;100791.34;1619928;88;21067;-93
2021/09/13 08:58:45;;;;;;;12.58;4.15;;;;;;;39.26;18.85;100784.97;1620323;88;21079;-93
2021/09/13 09:01:13;;;;;;;12.20;4.62;;;;;;;39.17;19.07;100779.86;1620558;88;21051;-91
2021/09/13 09:03:43;;;;;;;12.50;5.10;;;;;;;38.73;19.05;100772.59;1620308;88;21067;-92
2021/09/13 09:06:29;;;;;;;9.58;4.08;;;;;;;39.07;19.46;100767.08;1619919;88;21071;-93
2021/09/13 09:09:16;;;;;;;14.58;4.28;;;;;;;38.86;19.53;100766.37;1615406;88;21241;-93
2021/09/13 09:12:01;;;;;;;11.80;4.70;;;;;;;39.80;19.76;100767.66;1536901;93;21130;-91
2021/09/13 09:14:45;;;;;;;9.88;4.40;;;;;;;40.37;18.48;100765.54;1537233;93;21077;-92
2021/09/13 09:17:27;;;;;;;9.88;3.85;;;;;;;40.35;18.42;100763.02;1537208;92;21139;-91
2021/09/13 09:20:08;;;;;;;7.35;3.62;;;;;;;39.74;18.46;100761.81;1537532;93;21161;-92
2021/09/13 09:22:38;;;;;;;9.85;3.50;;;;;;;38.82;19.07;100764.24;1453720;97;21288;-89
2021/09/13 09:25:07;;;;;;;7.62;3.65;;;;;;;37.80;19.85;100762.59;1454017;98;21151;-92
2021/09/13 09:27:54;;;;;;;12.43;4.33;;;;;;;37.07;20.56;100754.42;1453906;98;21046;-91
2021/09/13 09:30:21;;;;;;;14.00;3.85;;;;;;;36.87;20.85;100752.28;1465574;97;21186;-93
2021/09/13 09:33:06;;;;;;;11.22;3.20;;;;;;;36.96;21.21;100753.23;1473038;96;21149;-90
2021/09/13 09:35:52;;;;;;;13.15;3.35;;;;;;;37.15;20.55;100746.59;1472825;96;21410;-91
2021/09/13 09:38:32;;;;;;;11.83;3.08;;;;;;;37.33;21.20;100739.91;1472476;97;21066;-93
2021/09/13 09:41:02;;;;;;;14.78;3.22;;;;;;;37.22;20.75;100735.18;1472839;97;21115;-92
2021/09/13 09:43:33;;;;;;;10.30;3.02;;;;;;;36.67;21.58;100736.88;1408498;101;21847;-87
2021/09/13 09:45:59;;;;;;;15.68;3.72;;;;;;;36.82;21.50;100736.72;1329702;107;21058;-90
2021/09/13 09:48:32;;;;;;;12.33;3.42;;;;;;;36.82;21.76;100741.72;1313442;107;21602;-92
2021/09/13 10:00:24;;;;;;;13.48;3.00;;;;;;;33.79;23.77;100734.36;1356492;100;21128;-89
2021/09/13 10:02:52;;;;;;;;;;;;;;;34.06;23.48;100730.31;1356142;106;21257;-90
2021/09/13 10:05:19;;;;;;;11.97;3.62;;;;;;;33.52;23.84;100727.27;1353762;106;20219;-90
2021/09/13 10:07:48;;;;;;;7.80;3.37;;;;;;;32.96;24.63;100731.47;1356477;104;22549;-91
2021/09/13 10:10:14;;;;;;;18.42;3.45;;;;;;;32.66;25.29;100728.50;1374920;104;21138;-90
2021/09/13 10:12:40;;;;;;;13.38;3.05;;;;;;;32.69;24.54;100726.28;1375124;104;21133;-91
2021/09/13 10:15:08;;;;;;;14.83;3.20;;;;;;;32.62;25.11;100720.73;1374963;104;21211;-91
2021/09/13 10:17:35;;;;;;;9.23;3.55;;;;;;;32.15;25.62;100721.54;1369949;104;21738;-89
2021/09/13 10:20:04;;;;;;;11.15;3.02;;;;;;;31.79;25.85;100721.63;1417865;94;21118;-88
2021/09/13 10:22:35;;;;;;;20.02;3.33;;;;;;;31.68;26.12;100724.47;1525192;93;21160;-90
2021/09/13 10:25:01;;;;;;;13.90;2.95;;;;;;;31.67;26.04;100724.25;1522496;94;21045;-90
2021/09/13 10:27:27;;;;;;;10.95;3.00;;;;;;;31.71;26.30;100725.63;1525371;94;21092;-85
2021/09/13 10:30:16;;;;;;;17.42;3.17;;;;;;;31.51;25.78;100719.72;1525333;93;21553;-91
2021/09/13 10:32:49;;;;;;;11.48;3.90;;;;;;;31.38;26.40;100722.89;1447444;96;21111;-89
2021/09/13 10:35:50;;;;;;;13.15;3.22;;;;;;;31.35;26.85;100725.69;1457703;98;21172;-88
2021/09/13 10:38:39;;;;;;;15.18;3.02;;;;;;;31.30;26.25;100725.48;1419877;101;21621;-91
2021/09/13 10:41:05;;;;;;;13.35;2.70;;;;;;;31.03;26.64;100717.30;1357320;104;21214;-93
2021/09/13 10:43:31;;;;;;;11.12;3.33;;;;;;;31.16;27.75;100716.52;1406930;95;21812;-92
2021/09/13 10:45:57;;;;;;;15.72;3.55;;;;;;;31.73;27.12;100712.09;1414287;101;21011;-92
2021/09/13 10:48:23;;;;;;;15.65;3.37;;;;;;;31.89;27.05;100711.06;1414312;97;21142;-89
2021/09/13 10:50:57;;;;;;;14.53;2.98;;;;;;;32.11;26.61;100705.62;1414428;101;21114;-91
2021/09/13 10:53:29;;;;;;;13.80;3.72;;;;;;;31.93;26.93;100703.50;1345836;105;21180;-91
2021/09/13 10:56:23;;;;;;;16.05;3.37;;;;;;;31.63;26.26;100709.54;1345594;106;21240;-95
2021/09/13 10:58:54;;;;;;;11.08;3.50;;;;;;;31.63;26.03;100707.55;1326985;108;21231;-92
2021/09/13 11:01:26;;;;;;;19.30;3.65;;;;;;;31.09;26.51;100712.35;1327118;108;21113;-91
2021/09/13 11:03:55;;;;;;;11.50;3.00;;;;;;;30.91;26.91;100699.00;1327349;108;21245;-89
2021/09/13 11:06:31;;;;;;;10.23;3.15;;;;;;;30.93;26.89;100698.02;1327130;108;21189;-90
2021/09/13 11:09:07;;;;;;;15.93;3.33;;;;;;;31.02;27.44;100697.63;1322889;104;21144;-90
2021/09/13 11:11:49;;;;;;;15.10;2.77;;;;;;;30.91;27.38;100701.18;1368419;102;21228;-94
2021/09/13 11:14:20;;;;;;;12.70;3.37;;;;;;;31.11;27.42;100694.63;1339285;107;21140;-91
2021/09/13 11:16:56;;;;;;;15.32;3.05;;;;;;;31.39;26.27;100690.28;1335336;107;21176;-91
2021/09/13 11:19:34;;;;;;;10.80;3.17;;;;;;;31.65;26.91;100684.83;1321417;108;21253;-93
2021/09/13 11:22:05;;;;;;;23.52;4.10;;;;;;;31.61;27.31;100683.45;1321201;108;21136;-89
2021/09/13 11:24:37;;;;;;;20.57;3.62;;;;;;;31.67;26.52;100684.63;1321517;108;21120;-89
2021/09/13 11:27:10;;;;;;;11.70;3.10;;;;;;;31.40;26.21;100679.33;1321347;108;21588;-90
2021/09/13 11:29:48;;;;;;;15.10;3.42;;;;;;;31.38;26.08;100682.50;1303529;110;21136;-89
2021/09/13 11:32:17;;;;;;;8.73;3.50;;;;;;;31.35;26.60;100677.73;1315051;108;22365;-91
2021/09/13 11:34:49;;;;;;;14.60;3.33;;;;;;;30.89;26.51;100677.14;1311038;108;21813;-91
2021/09/13 11:37:23;;;;;;;11.80;3.10;;;;;;;30.42;26.94;100678.24;1333970;107;21643;-90
2021/09/13 11:42:27;;;;;;;9.08;3.08;;;;;;;30.50;26.60;100678.44;1260402;112;21625;-91
2021/09/13 11:45:02;;;;;;;9.40;3.55;;;;;;;30.94;27.17;100673.98;1273030;112;21195;-90
2021/09/13 11:47:31;;;;;;;13.53;3.40;;;;;;;30.78;27.29;100675.73;1269175;110;21091;-96
2021/09/13 11:50:00;;;;;;;17.05;3.58;;;;;;;30.91;26.98;100664.20;1255352;113;21199;-93
2021/09/13 11:52:30;;;;;;;13.40;3.40;;;;;;;31.22;26.54;100663.41;1305320;109;21223;-94
2021/09/13 11:55:10;;;;;;;14.30;3.50;;;;;;;31.54;25.75;100657.63;1303992;110;21173;-91
2021/09/13 11:57:43;;;;;;;18.95;3.80;;;;;;;31.83;25.74;100662.51;1328372;106;21142;-92
2021/09/13 12:00:20;;;;;;;;;;;;;;;31.96;25.86;100657.30;1335389;107;21191;-92
2021/09/13 12:02:57;;;;;;;12.00;2.90;;;;;;;32.01;26.15;100654.09;1325978;108;20203;-92
2021/09/13 12:05:26;;;;;;;11.10;3.30;;;;;;;31.85;26.04;100655.91;1348819;106;21164;-89
2021/09/13 12:07:54;;;;;;;20.30;4.20;;;;;;;31.96;25.78;100647.55;1348761;106;21211;-92
2021/09/13 12:10:30;;;;;;;10.68;2.80;;;;;;;31.52;26.49;100643.29;1318405;108;21169;-91
2021/09/13 12:13:09;;;;;;;10.30;3.20;;;;;;;31.32;26.30;100640.11;1301234;110;21286;-89
2021/09/13 12:15:36;;;;;;;15.00;3.33;;;;;;;31.10;25.87;100643.54;1312545;109;21624;-87
2021/09/13 12:19:01;;;;;;;16.42;4.08;;;;;;;30.85;26.30;100641.55;1313485;109;21691;-91
2021/09/13 12:21:27;;;;;;;12.85;3.47;;;;;;;30.56;26.92;100639.30;1311282;108;21213;-91